首页
METAR-TAF:

METAR-TAF

机场 :

金斯特里, 南卡罗来纳州, 美国

纬度: 33-43-02N, 经度: 079-51-25W, 海拔: 20米

当前天气观测

该预报发布于29分钟前的10:35 UTC
风速7节,风向南转西南
温度 16°C
湿度 88%
气压 1015 hPa
能見度: 11.3公里
散云层高于2500英尺
多云层高于3000英尺
阴天层高于4200英尺

METAR: KCKI 191035Z AUTO 21007KT 7SM SCT025 BKN030 OVC042 16/14 A2996 RMK AO2

时间: 06:04 (11:04 UTC)


TAF: 丢失

超过4000个机场的气象观测和天气预报(METAR&TAF报告)。

可查询的气象台以黄色和红色小点在地图上表示。

将鼠标移到小点上方,可查看气象台名称。

然后点击查看天气观测和预报。

如需切换地图:点击带黑十字的绿色按钮放大地图;点击带横线的绿色按钮缩小地图;或者点击绿色箭头查看邻近地区的地图。


METAR-TAF: